sensor_id;sensor_type;location;lat;lon;timestamp;P1;durP1;ratioP1;P2;durP2;ratioP2
10088;SDS011;51898;49.864;8.550;2023-01-10T00:00:56;3.60;;;1.33;;
10088;SDS011;51898;49.864;8.550;2023-01-10T00:03:58;1.67;;;1.07;;
10088;SDS011;51898;49.864;8.550;2023-01-10T00:07:02;1.73;;;1.33;;
10088;SDS011;51898;49.864;8.550;2023-01-10T00:10:07;1.33;;;1.20;;
10088;SDS011;51898;49.864;8.550;2023-01-10T00:13:15;1.33;;;1.10;;
10088;SDS011;51898;49.864;8.550;2023-01-10T00:16:24;2.03;;;1.03;;
10088;SDS011;51898;49.864;8.550;2023-01-10T00:19:28;1.57;;;1.03;;
10088;SDS011;51898;49.864;8.550;2023-01-10T00:22:30;1.70;;;1.10;;
10088;SDS011;51898;49.864;8.550;2023-01-10T00:25:32;1.30;;;1.20;;
10088;SDS011;51898;49.864;8.550;2023-01-10T00:28:39;1.20;;;1.07;;
10088;SDS011;51898;49.864;8.550;2023-01-10T00:31:43;1.27;;;1.07;;
10088;SDS011;51898;49.864;8.550;2023-01-10T00:34:45;2.40;;;0.90;;
10088;SDS011;51898;49.864;8.550;2023-01-10T00:37:49;1.33;;;0.97;;
10088;SDS011;51898;49.864;8.550;2023-01-10T00:41:06;1.37;;;1.20;;
10088;SDS011;51898;49.864;8.550;2023-01-10T00:44:27;1.57;;;1.10;;
10088;SDS011;51898;49.864;8.550;2023-01-10T00:47:29;1.80;;;0.90;;
10088;SDS011;51898;49.864;8.550;2023-01-10T00:50:31;1.20;;;1.10;;
10088;SDS011;51898;49.864;8.550;2023-01-10T00:53:33;1.30;;;1.20;;
10088;SDS011;51898;49.864;8.550;2023-01-10T00:56:35;1.27;;;1.10;;
10088;SDS011;51898;49.864;8.550;2023-01-10T00:59:39;1.10;;;1.00;;
10088;SDS011;51898;49.864;8.550;2023-01-10T01:02:41;2.30;;;1.30;;
10088;SDS011;51898;49.864;8.550;2023-01-10T01:05:43;1.60;;;1.00;;
10088;SDS011;51898;49.864;8.550;2023-01-10T01:08:47;1.00;;;0.90;;
10088;SDS011;51898;49.864;8.550;2023-01-10T01:12:36;1.00;;;0.90;;
10088;SDS011;51898;49.864;8.550;2023-01-10T01:15:40;1.10;;;0.90;;
10088;SDS011;51898;49.864;8.550;2023-01-10T01:18:42;1.83;;;0.80;;
10088;SDS011;51898;49.864;8.550;2023-01-10T01:22:12;1.10;;;0.80;;
10088;SDS011;51898;49.864;8.550;2023-01-10T01:25:15;1.00;;;0.87;;
10088;SDS011;51898;49.864;8.550;2023-01-10T01:28:17;0.80;;;0.80;;
10088;SDS011;51898;49.864;8.550;2023-01-10T01:31:27;0.80;;;0.80;;
10088;SDS011;51898;49.864;8.550;2023-01-10T01:34:35;2.30;;;0.93;;
10088;SDS011;51898;49.864;8.550;2023-01-10T01:37:37;1.20;;;0.90;;
10088;SDS011;51898;49.864;8.550;2023-01-10T01:40:39;3.30;;;1.13;;
10088;SDS011;51898;49.864;8.550;2023-01-10T01:47:23;0.80;;;0.80;;
10088;SDS011;51898;49.864;8.550;2023-01-10T01:50:36;1.23;;;0.70;;
10088;SDS011;51898;49.864;8.550;2023-01-10T01:53:54;0.80;;;0.60;;
10088;SDS011;51898;49.864;8.550;2023-01-10T01:57:11;1.03;;;0.80;;
10088;SDS011;51898;49.864;8.550;2023-01-10T02:00:41;1.33;;;0.80;;
10088;SDS011;51898;49.864;8.550;2023-01-10T02:03:50;0.83;;;0.83;;
10088;SDS011;51898;49.864;8.550;2023-01-10T02:06:57;1.37;;;0.90;;
10088;SDS011;51898;49.864;8.550;2023-01-10T02:10:02;2.30;;;0.97;;
10088;SDS011;51898;49.864;8.550;2023-01-10T02:13:14;1.83;;;0.90;;
10088;SDS011;51898;49.864;8.550;2023-01-10T02:16:19;1.73;;;1.00;;
10088;SDS011;51898;49.864;8.550;2023-01-10T02:29:32;1.43;;;1.23;;
10088;SDS011;51898;49.864;8.550;2023-01-10T02:33:19;1.33;;;1.17;;
10088;SDS011;51898;49.864;8.550;2023-01-10T02:39:39;4.03;;;1.90;;
10088;SDS011;51898;49.864;8.550;2023-01-10T02:46:14;3.57;;;2.00;;
10088;SDS011;51898;49.864;8.550;2023-01-10T02:49:25;1.40;;;1.30;;
10088;SDS011;51898;49.864;8.550;2023-01-10T02:52:27;2.53;;;1.47;;
10088;SDS011;51898;49.864;8.550;2023-01-10T02:55:47;7.43;;;1.80;;
10088;SDS011;51898;49.864;8.550;2023-01-10T03:02:54;3.10;;;1.63;;
10088;SDS011;51898;49.864;8.550;2023-01-10T03:06:06;4.50;;;1.53;;
10088;SDS011;51898;49.864;8.550;2023-01-10T03:09:33;2.77;;;1.60;;
10088;SDS011;51898;49.864;8.550;2023-01-10T03:15:48;4.90;;;2.00;;
10088;SDS011;51898;49.864;8.550;2023-01-10T03:18:55;2.83;;;1.83;;
10088;SDS011;51898;49.864;8.550;2023-01-10T03:22:01;2.30;;;1.40;;
10088;SDS011;51898;49.864;8.550;2023-01-10T03:25:06;2.07;;;1.10;;
10088;SDS011;51898;49.864;8.550;2023-01-10T03:31:24;2.83;;;1.50;;
10088;SDS011;51898;49.864;8.550;2023-01-10T03:34:30;3.03;;;1.70;;
10088;SDS011;51898;49.864;8.550;2023-01-10T03:37:33;2.57;;;1.40;;
10088;SDS011;51898;49.864;8.550;2023-01-10T03:41:07;2.17;;;1.77;;
10088;SDS011;51898;49.864;8.550;2023-01-10T03:47:46;4.27;;;2.13;;
10088;SDS011;51898;49.864;8.550;2023-01-10T03:50:51;3.67;;;1.60;;
10088;SDS011;51898;49.864;8.550;2023-01-10T03:53:53;5.63;;;1.53;;
10088;SDS011;51898;49.864;8.550;2023-01-10T03:56:55;2.63;;;1.50;;
10088;SDS011;51898;49.864;8.550;2023-01-10T03:59:57;2.17;;;1.60;;
10088;SDS011;51898;49.864;8.550;2023-01-10T04:02:59;4.87;;;1.37;;
10088;SDS011;51898;49.864;8.550;2023-01-10T04:06:02;3.50;;;1.60;;
10088;SDS011;51898;49.864;8.550;2023-01-10T04:09:03;3.43;;;1.43;;
10088;SDS011;51898;49.864;8.550;2023-01-10T04:12:08;4.53;;;1.70;;
10088;SDS011;51898;49.864;8.550;2023-01-10T04:15:16;5.37;;;1.43;;
10088;SDS011;51898;49.864;8.550;2023-01-10T04:18:25;3.70;;;1.50;;
10088;SDS011;51898;49.864;8.550;2023-01-10T04:21:27;3.00;;;1.77;;
10088;SDS011;51898;49.864;8.550;2023-01-10T04:24:32;5.20;;;1.90;;
10088;SDS011;51898;49.864;8.550;2023-01-10T04:27:37;8.30;;;2.13;;
10088;SDS011;51898;49.864;8.550;2023-01-10T04:30:39;4.87;;;2.33;;
10088;SDS011;51898;49.864;8.550;2023-01-10T04:33:41;2.20;;;1.70;;
10088;SDS011;51898;49.864;8.550;2023-01-10T04:36:42;6.30;;;2.17;;
10088;SDS011;51898;49.864;8.550;2023-01-10T04:39:44;6.80;;;2.30;;
10088;SDS011;51898;49.864;8.550;2023-01-10T04:42:46;4.57;;;1.97;;
10088;SDS011;51898;49.864;8.550;2023-01-10T04:45:48;6.03;;;2.10;;
10088;SDS011;51898;49.864;8.550;2023-01-10T04:48:50;4.60;;;2.00;;
10088;SDS011;51898;49.864;8.550;2023-01-10T04:51:52;9.70;;;2.50;;
10088;SDS011;51898;49.864;8.550;2023-01-10T04:54:54;6.67;;;2.20;;
10088;SDS011;51898;49.864;8.550;2023-01-10T04:57:56;5.07;;;2.63;;
10088;SDS011;51898;49.864;8.550;2023-01-10T05:00:58;6.10;;;2.70;;
10088;SDS011;51898;49.864;8.550;2023-01-10T05:04:00;3.10;;;2.30;;
10088;SDS011;51898;49.864;8.550;2023-01-10T05:07:03;9.23;;;2.50;;
10088;SDS011;51898;49.864;8.550;2023-01-10T05:10:08;5.70;;;2.50;;
10088;SDS011;51898;49.864;8.550;2023-01-10T05:13:10;2.57;;;2.37;;
10088;SDS011;51898;49.864;8.550;2023-01-10T05:16:12;3.27;;;2.50;;
10088;SDS011;51898;49.864;8.550;2023-01-10T05:19:34;6.03;;;2.90;;
10088;SDS011;51898;49.864;8.550;2023-01-10T05:22:35;4.73;;;2.13;;
10088;SDS011;51898;49.864;8.550;2023-01-10T05:25:46;4.00;;;2.63;;
10088;SDS011;51898;49.864;8.550;2023-01-10T05:28:48;6.53;;;2.80;;
10088;SDS011;51898;49.864;8.550;2023-01-10T05:31:50;6.60;;;2.70;;
10088;SDS011;51898;49.864;8.550;2023-01-10T05:34:52;10.87;;;3.23;;
10088;SDS011;51898;49.864;8.550;2023-01-10T05:37:54;10.13;;;2.93;;
10088;SDS011;51898;49.864;8.550;2023-01-10T05:40:56;21.90;;;2.80;;
10088;SDS011;51898;49.864;8.550;2023-01-10T05:43:59;6.87;;;2.70;;
10088;SDS011;51898;49.864;8.550;2023-01-10T05:47:01;5.57;;;2.30;;
10088;SDS011;51898;49.864;8.550;2023-01-10T05:50:06;4.90;;;2.50;;
10088;SDS011;51898;49.864;8.550;2023-01-10T05:53:08;5.07;;;2.67;;
10088;SDS011;51898;49.864;8.550;2023-01-10T05:56:10;9.30;;;2.23;;
10088;SDS011;51898;49.864;8.550;2023-01-10T05:59:12;7.07;;;3.60;;
10088;SDS011;51898;49.864;8.550;2023-01-10T06:02:28;5.40;;;2.80;;
10088;SDS011;51898;49.864;8.550;2023-01-10T06:05:30;7.03;;;2.40;;
10088;SDS011;51898;49.864;8.550;2023-01-10T06:08:31;7.50;;;2.23;;
10088;SDS011;51898;49.864;8.550;2023-01-10T06:11:33;5.47;;;2.30;;
10088;SDS011;51898;49.864;8.550;2023-01-10T06:14:38;5.60;;;2.60;;
10088;SDS011;51898;49.864;8.550;2023-01-10T06:17:40;6.90;;;2.93;;
10088;SDS011;51898;49.864;8.550;2023-01-10T06:20:44;5.50;;;2.53;;
10088;SDS011;51898;49.864;8.550;2023-01-10T06:23:46;9.07;;;2.73;;
10088;SDS011;51898;49.864;8.550;2023-01-10T06:26:48;4.00;;;2.90;;
10088;SDS011;51898;49.864;8.550;2023-01-10T06:29:50;4.27;;;2.10;;
10088;SDS011;51898;49.864;8.550;2023-01-10T06:32:52;3.30;;;1.97;;
10088;SDS011;51898;49.864;8.550;2023-01-10T06:35:54;6.30;;;2.70;;
10088;SDS011;51898;49.864;8.550;2023-01-10T06:38:55;6.43;;;2.20;;
10088;SDS011;51898;49.864;8.550;2023-01-10T06:42:00;8.43;;;2.67;;
10088;SDS011;51898;49.864;8.550;2023-01-10T06:45:01;5.47;;;2.80;;
10088;SDS011;51898;49.864;8.550;2023-01-10T06:48:05;4.50;;;2.63;;
10088;SDS011;51898;49.864;8.550;2023-01-10T06:51:06;6.10;;;2.77;;
10088;SDS011;51898;49.864;8.550;2023-01-10T06:54:08;7.63;;;2.93;;
10088;SDS011;51898;49.864;8.550;2023-01-10T06:57:10;5.70;;;2.87;;
10088;SDS011;51898;49.864;8.550;2023-01-10T07:00:12;10.93;;;2.83;;
10088;SDS011;51898;49.864;8.550;2023-01-10T07:03:19;9.03;;;2.67;;
10088;SDS011;51898;49.864;8.550;2023-01-10T07:06:21;9.60;;;2.87;;
10088;SDS011;51898;49.864;8.550;2023-01-10T07:09:22;9.80;;;3.03;;
10088;SDS011;51898;49.864;8.550;2023-01-10T07:12:24;10.20;;;2.87;;
10088;SDS011;51898;49.864;8.550;2023-01-10T07:15:31;18.53;;;4.10;;
10088;SDS011;51898;49.864;8.550;2023-01-10T07:18:33;7.87;;;2.77;;
10088;SDS011;51898;49.864;8.550;2023-01-10T07:21:35;8.10;;;3.07;;
10088;SDS011;51898;49.864;8.550;2023-01-10T07:24:37;4.77;;;2.93;;
10088;SDS011;51898;49.864;8.550;2023-01-10T07:27:39;9.50;;;3.20;;
10088;SDS011;51898;49.864;8.550;2023-01-10T07:34:47;13.03;;;3.10;;
10088;SDS011;51898;49.864;8.550;2023-01-10T07:38:12;7.93;;;3.00;;
10088;SDS011;51898;49.864;8.550;2023-01-10T07:42:17;7.43;;;3.53;;
10088;SDS011;51898;49.864;8.550;2023-01-10T07:45:18;8.57;;;3.07;;
10088;SDS011;51898;49.864;8.550;2023-01-10T07:48:28;19.33;;;3.60;;
10088;SDS011;51898;49.864;8.550;2023-01-10T07:51:30;13.73;;;3.50;;
10088;SDS011;51898;49.864;8.550;2023-01-10T07:54:32;10.80;;;4.37;;
10088;SDS011;51898;49.864;8.550;2023-01-10T07:57:37;10.30;;;3.57;;
10088;SDS011;51898;49.864;8.550;2023-01-10T08:00:39;16.30;;;4.03;;
10088;SDS011;51898;49.864;8.550;2023-01-10T08:03:41;9.90;;;2.97;;
10088;SDS011;51898;49.864;8.550;2023-01-10T08:06:43;8.60;;;3.33;;
10088;SDS011;51898;49.864;8.550;2023-01-10T08:09:52;9.60;;;3.77;;
10088;SDS011;51898;49.864;8.550;2023-01-10T08:12:59;16.53;;;4.50;;
10088;SDS011;51898;49.864;8.550;2023-01-10T08:16:19;17.00;;;3.80;;
10088;SDS011;51898;49.864;8.550;2023-01-10T08:19:23;14.43;;;4.47;;
10088;SDS011;51898;49.864;8.550;2023-01-10T08:22:25;9.80;;;4.60;;
10088;SDS011;51898;49.864;8.550;2023-01-10T08:25:27;11.20;;;4.07;;
10088;SDS011;51898;49.864;8.550;2023-01-10T08:28:29;14.73;;;4.73;;
10088;SDS011;51898;49.864;8.550;2023-01-10T08:31:31;9.10;;;4.20;;
10088;SDS011;51898;49.864;8.550;2023-01-10T08:34:32;18.13;;;5.20;;
10088;SDS011;51898;49.864;8.550;2023-01-10T08:37:37;12.80;;;3.87;;
10088;SDS011;51898;49.864;8.550;2023-01-10T08:40:39;15.23;;;4.30;;
10088;SDS011;51898;49.864;8.550;2023-01-10T08:43:41;11.83;;;4.23;;
10088;SDS011;51898;49.864;8.550;2023-01-10T08:46:42;22.20;;;4.43;;
10088;SDS011;51898;49.864;8.550;2023-01-10T08:49:50;23.60;;;4.73;;
10088;SDS011;51898;49.864;8.550;2023-01-10T08:52:52;13.70;;;4.07;;
10088;SDS011;51898;49.864;8.550;2023-01-10T08:55:54;17.93;;;4.10;;
10088;SDS011;51898;49.864;8.550;2023-01-10T08:59:02;13.10;;;4.57;;
10088;SDS011;51898;49.864;8.550;2023-01-10T09:02:13;12.10;;;4.53;;
10088;SDS011;51898;49.864;8.550;2023-01-10T09:05:15;10.90;;;4.20;;
10088;SDS011;51898;49.864;8.550;2023-01-10T09:08:28;11.30;;;4.77;;
10088;SDS011;51898;49.864;8.550;2023-01-10T09:11:37;10.87;;;3.87;;
10088;SDS011;51898;49.864;8.550;2023-01-10T09:14:42;8.23;;;4.03;;
10088;SDS011;51898;49.864;8.550;2023-01-10T09:17:43;9.40;;;4.30;;
10088;SDS011;51898;49.864;8.550;2023-01-10T09:20:57;15.73;;;4.20;;
10088;SDS011;51898;49.864;8.550;2023-01-10T09:24:01;9.37;;;3.10;;
10088;SDS011;51898;49.864;8.550;2023-01-10T09:27:09;16.30;;;3.80;;
10088;SDS011;51898;49.864;8.550;2023-01-10T09:30:11;15.30;;;3.60;;
10088;SDS011;51898;49.864;8.550;2023-01-10T09:33:16;11.00;;;3.20;;
10088;SDS011;51898;49.864;8.550;2023-01-10T09:36:45;8.90;;;3.40;;
10088;SDS011;51898;49.864;8.550;2023-01-10T09:39:47;8.43;;;2.67;;
10088;SDS011;51898;49.864;8.550;2023-01-10T09:46:44;7.33;;;2.90;;
10088;SDS011;51898;49.864;8.550;2023-01-10T09:53:58;7.47;;;3.20;;
10088;SDS011;51898;49.864;8.550;2023-01-10T09:57:16;7.10;;;3.03;;
10088;SDS011;51898;49.864;8.550;2023-01-10T10:07:24;5.87;;;2.83;;
10088;SDS011;51898;49.864;8.550;2023-01-10T10:10:33;12.17;;;2.50;;
10088;SDS011;51898;49.864;8.550;2023-01-10T10:13:49;10.40;;;3.17;;
10088;SDS011;51898;49.864;8.550;2023-01-10T10:17:11;10.63;;;4.03;;
10088;SDS011;51898;49.864;8.550;2023-01-10T10:24:03;7.93;;;3.17;;
10088;SDS011;51898;49.864;8.550;2023-01-10T10:31:01;8.73;;;3.33;;
10088;SDS011;51898;49.864;8.550;2023-01-10T10:37:40;8.50;;;2.93;;
10088;SDS011;51898;49.864;8.550;2023-01-10T10:40:46;6.70;;;3.90;;
10088;SDS011;51898;49.864;8.550;2023-01-10T10:43:48;12.97;;;3.10;;
10088;SDS011;51898;49.864;8.550;2023-01-10T10:46:51;11.10;;;3.30;;
10088;SDS011;51898;49.864;8.550;2023-01-10T10:53:25;10.83;;;3.30;;
10088;SDS011;51898;49.864;8.550;2023-01-10T10:56:28;10.17;;;3.00;;
10088;SDS011;51898;49.864;8.550;2023-01-10T10:59:30;10.10;;;3.73;;
10088;SDS011;51898;49.864;8.550;2023-01-10T11:02:38;15.07;;;2.70;;
10088;SDS011;51898;49.864;8.550;2023-01-10T11:05:44;9.20;;;3.30;;
10088;SDS011;51898;49.864;8.550;2023-01-10T11:08:47;11.87;;;3.30;;
10088;SDS011;51898;49.864;8.550;2023-01-10T11:11:52;15.20;;;3.33;;
10088;SDS011;51898;49.864;8.550;2023-01-10T11:14:57;9.50;;;3.27;;
10088;SDS011;51898;49.864;8.550;2023-01-10T11:18:04;11.60;;;3.30;;
10088;SDS011;51898;49.864;8.550;2023-01-10T11:21:14;20.53;;;3.97;;
10088;SDS011;51898;49.864;8.550;2023-01-10T11:24:25;13.00;;;2.70;;
10088;SDS011;51898;49.864;8.550;2023-01-10T11:27:53;10.23;;;3.83;;
10088;SDS011;51898;49.864;8.550;2023-01-10T11:31:00;17.10;;;3.80;;
10088;SDS011;51898;49.864;8.550;2023-01-10T11:34:07;16.83;;;3.43;;
10088;SDS011;51898;49.864;8.550;2023-01-10T11:37:40;14.77;;;3.77;;
10088;SDS011;51898;49.864;8.550;2023-01-10T11:40:52;9.70;;;3.53;;
10088;SDS011;51898;49.864;8.550;2023-01-10T11:44:20;10.60;;;3.80;;
10088;SDS011;51898;49.864;8.550;2023-01-10T11:47:23;11.40;;;3.90;;
10088;SDS011;51898;49.864;8.550;2023-01-10T11:50:30;17.57;;;4.27;;
10088;SDS011;51898;49.864;8.550;2023-01-10T11:56:39;13.50;;;4.53;;
10088;SDS011;51898;49.864;8.550;2023-01-10T11:59:53;9.97;;;3.93;;
10088;SDS011;51898;49.864;8.550;2023-01-10T12:02:59;10.83;;;3.63;;
10088;SDS011;51898;49.864;8.550;2023-01-10T12:06:08;11.13;;;3.37;;
10088;SDS011;51898;49.864;8.550;2023-01-10T12:09:32;10.20;;;3.43;;
10088;SDS011;51898;49.864;8.550;2023-01-10T12:12:59;8.63;;;3.43;;
10088;SDS011;51898;49.864;8.550;2023-01-10T12:19:20;22.07;;;5.00;;
10088;SDS011;51898;49.864;8.550;2023-01-10T12:22:38;13.27;;;2.93;;
10088;SDS011;51898;49.864;8.550;2023-01-10T12:25:42;10.50;;;2.70;;
10088;SDS011;51898;49.864;8.550;2023-01-10T12:28:53;9.63;;;3.00;;
10088;SDS011;51898;49.864;8.550;2023-01-10T12:32:02;8.83;;;3.53;;
10088;SDS011;51898;49.864;8.550;2023-01-10T12:35:09;17.50;;;3.20;;
10088;SDS011;51898;49.864;8.550;2023-01-10T12:38:39;16.33;;;4.10;;
10088;SDS011;51898;49.864;8.550;2023-01-10T12:42:23;15.93;;;3.43;;
10088;SDS011;51898;49.864;8.550;2023-01-10T12:49:45;15.40;;;3.60;;
10088;SDS011;51898;49.864;8.550;2023-01-10T12:53:14;11.80;;;3.30;;
10088;SDS011;51898;49.864;8.550;2023-01-10T12:56:22;13.60;;;3.50;;
10088;SDS011;51898;49.864;8.550;2023-01-10T12:59:41;12.07;;;2.90;;
10088;SDS011;51898;49.864;8.550;2023-01-10T13:02:46;11.23;;;3.13;;
10088;SDS011;51898;49.864;8.550;2023-01-10T13:05:53;7.47;;;2.80;;
10088;SDS011;51898;49.864;8.550;2023-01-10T13:08:57;12.30;;;3.00;;
10088;SDS011;51898;49.864;8.550;2023-01-10T13:16:23;16.23;;;3.33;;
10088;SDS011;51898;49.864;8.550;2023-01-10T13:19:36;8.93;;;3.20;;
10088;SDS011;51898;49.864;8.550;2023-01-10T13:22:40;7.53;;;3.00;;
10088;SDS011;51898;49.864;8.550;2023-01-10T13:25:48;9.43;;;3.03;;
10088;SDS011;51898;49.864;8.550;2023-01-10T13:28:56;11.77;;;3.57;;
10088;SDS011;51898;49.864;8.550;2023-01-10T13:32:00;9.87;;;3.10;;
10088;SDS011;51898;49.864;8.550;2023-01-10T13:35:12;7.03;;;2.67;;
10088;SDS011;51898;49.864;8.550;2023-01-10T13:38:21;5.53;;;2.53;;
10088;SDS011;51898;49.864;8.550;2023-01-10T13:45:20;10.10;;;2.77;;
10088;SDS011;51898;49.864;8.550;2023-01-10T13:48:27;16.10;;;3.30;;
10088;SDS011;51898;49.864;8.550;2023-01-10T13:51:29;11.40;;;2.80;;
10088;SDS011;51898;49.864;8.550;2023-01-10T13:54:31;12.40;;;3.37;;
10088;SDS011;51898;49.864;8.550;2023-01-10T14:00:58;12.03;;;2.80;;
10088;SDS011;51898;49.864;8.550;2023-01-10T14:04:24;12.17;;;2.50;;
10088;SDS011;51898;49.864;8.550;2023-01-10T14:07:32;8.30;;;2.70;;
10088;SDS011;51898;49.864;8.550;2023-01-10T14:10:46;11.43;;;2.70;;
10088;SDS011;51898;49.864;8.550;2023-01-10T14:14:04;15.27;;;3.00;;
10088;SDS011;51898;49.864;8.550;2023-01-10T14:17:10;10.27;;;2.90;;
10088;SDS011;51898;49.864;8.550;2023-01-10T14:20:34;8.23;;;3.13;;
10088;SDS011;51898;49.864;8.550;2023-01-10T14:26:48;10.00;;;2.63;;
10088;SDS011;51898;49.864;8.550;2023-01-10T14:30:03;8.83;;;3.00;;
10088;SDS011;51898;49.864;8.550;2023-01-10T14:33:18;14.83;;;3.40;;
10088;SDS011;51898;49.864;8.550;2023-01-10T14:36:28;9.67;;;3.70;;
10088;SDS011;51898;49.864;8.550;2023-01-10T14:39:37;7.57;;;2.80;;
10088;SDS011;51898;49.864;8.550;2023-01-10T14:42:42;9.43;;;2.90;;
10088;SDS011;51898;49.864;8.550;2023-01-10T14:49:17;8.43;;;4.23;;
10088;SDS011;51898;49.864;8.550;2023-01-10T14:52:22;10.00;;;3.10;;
10088;SDS011;51898;49.864;8.550;2023-01-10T14:55:26;14.47;;;3.97;;
10088;SDS011;51898;49.864;8.550;2023-01-10T14:58:28;15.20;;;3.10;;
10088;SDS011;51898;49.864;8.550;2023-01-10T15:01:30;15.73;;;3.33;;
10088;SDS011;51898;49.864;8.550;2023-01-10T15:04:32;7.63;;;2.87;;
10088;SDS011;51898;49.864;8.550;2023-01-10T15:07:42;11.47;;;3.03;;
10088;SDS011;51898;49.864;8.550;2023-01-10T15:10:44;11.10;;;2.93;;
10088;SDS011;51898;49.864;8.550;2023-01-10T15:13:49;9.73;;;2.83;;
10088;SDS011;51898;49.864;8.550;2023-01-10T15:16:55;7.80;;;3.13;;
10088;SDS011;51898;49.864;8.550;2023-01-10T15:20:02;9.97;;;2.70;;
10088;SDS011;51898;49.864;8.550;2023-01-10T15:23:05;16.47;;;3.20;;
10088;SDS011;51898;49.864;8.550;2023-01-10T15:26:15;10.20;;;3.23;;
10088;SDS011;51898;49.864;8.550;2023-01-10T15:29:20;14.30;;;2.93;;
10088;SDS011;51898;49.864;8.550;2023-01-10T15:32:34;10.40;;;2.80;;
10088;SDS011;51898;49.864;8.550;2023-01-10T15:35:39;15.17;;;2.80;;
10088;SDS011;51898;49.864;8.550;2023-01-10T15:38:44;11.83;;;3.17;;
10088;SDS011;51898;49.864;8.550;2023-01-10T15:41:48;7.57;;;2.43;;
10088;SDS011;51898;49.864;8.550;2023-01-10T15:44:55;9.77;;;3.10;;
10088;SDS011;51898;49.864;8.550;2023-01-10T15:47:56;12.60;;;2.80;;
10088;SDS011;51898;49.864;8.550;2023-01-10T15:51:13;17.90;;;2.97;;
10088;SDS011;51898;49.864;8.550;2023-01-10T16:00:32;7.73;;;3.30;;
10088;SDS011;51898;49.864;8.550;2023-01-10T16:03:35;12.43;;;3.20;;
10088;SDS011;51898;49.864;8.550;2023-01-10T16:06:39;8.57;;;2.57;;
10088;SDS011;51898;49.864;8.550;2023-01-10T16:09:46;14.23;;;2.77;;
10088;SDS011;51898;49.864;8.550;2023-01-10T16:13:08;9.77;;;2.63;;
10088;SDS011;51898;49.864;8.550;2023-01-10T16:16:32;7.03;;;2.30;;
10088;SDS011;51898;49.864;8.550;2023-01-10T16:19:34;10.30;;;2.60;;
10088;SDS011;51898;49.864;8.550;2023-01-10T16:22:36;5.13;;;2.47;;
10088;SDS011;51898;49.864;8.550;2023-01-10T16:25:42;7.67;;;3.13;;
10088;SDS011;51898;49.864;8.550;2023-01-10T16:28:49;13.43;;;3.10;;
10088;SDS011;51898;49.864;8.550;2023-01-10T16:31:51;9.50;;;2.53;;
10088;SDS011;51898;49.864;8.550;2023-01-10T16:34:53;8.03;;;2.60;;
10088;SDS011;51898;49.864;8.550;2023-01-10T16:37:56;6.07;;;2.50;;
10088;SDS011;51898;49.864;8.550;2023-01-10T16:40:58;8.43;;;2.60;;
10088;SDS011;51898;49.864;8.550;2023-01-10T16:44:21;5.33;;;1.90;;
10088;SDS011;51898;49.864;8.550;2023-01-10T16:47:23;6.23;;;2.50;;
10088;SDS011;51898;49.864;8.550;2023-01-10T16:50:24;12.13;;;2.47;;
10088;SDS011;51898;49.864;8.550;2023-01-10T16:53:26;9.20;;;2.80;;
10088;SDS011;51898;49.864;8.550;2023-01-10T16:56:28;10.80;;;2.37;;
10088;SDS011;51898;49.864;8.550;2023-01-10T16:59:30;6.70;;;2.43;;
10088;SDS011;51898;49.864;8.550;2023-01-10T17:02:31;7.57;;;2.63;;
10088;SDS011;51898;49.864;8.550;2023-01-10T17:05:33;7.80;;;2.30;;
10088;SDS011;51898;49.864;8.550;2023-01-10T17:08:36;4.13;;;2.00;;
10088;SDS011;51898;49.864;8.550;2023-01-10T17:11:39;13.47;;;3.50;;
10088;SDS011;51898;49.864;8.550;2023-01-10T17:14:42;7.60;;;1.93;;
10088;SDS011;51898;49.864;8.550;2023-01-10T17:17:44;10.03;;;2.43;;
10088;SDS011;51898;49.864;8.550;2023-01-10T17:20:45;6.43;;;2.20;;
10088;SDS011;51898;49.864;8.550;2023-01-10T17:23:47;7.73;;;2.40;;
10088;SDS011;51898;49.864;8.550;2023-01-10T17:26:50;9.50;;;2.60;;
10088;SDS011;51898;49.864;8.550;2023-01-10T17:29:51;11.50;;;2.60;;
10088;SDS011;51898;49.864;8.550;2023-01-10T17:32:53;7.20;;;2.67;;
10088;SDS011;51898;49.864;8.550;2023-01-10T17:35:55;9.40;;;3.03;;
10088;SDS011;51898;49.864;8.550;2023-01-10T17:38:57;7.53;;;2.67;;
10088;SDS011;51898;49.864;8.550;2023-01-10T17:41:59;4.83;;;2.47;;
10088;SDS011;51898;49.864;8.550;2023-01-10T17:45:01;10.20;;;3.10;;
10088;SDS011;51898;49.864;8.550;2023-01-10T17:48:03;4.90;;;3.03;;
10088;SDS011;51898;49.864;8.550;2023-01-10T17:51:05;6.40;;;3.00;;
10088;SDS011;51898;49.864;8.550;2023-01-10T17:54:07;10.73;;;3.03;;
10088;SDS011;51898;49.864;8.550;2023-01-10T17:57:09;5.37;;;2.30;;
10088;SDS011;51898;49.864;8.550;2023-01-10T18:00:12;9.30;;;3.50;;
10088;SDS011;51898;49.864;8.550;2023-01-10T18:03:14;6.13;;;2.40;;
10088;SDS011;51898;49.864;8.550;2023-01-10T18:06:17;11.93;;;2.70;;
10088;SDS011;51898;49.864;8.550;2023-01-10T18:09:24;4.20;;;2.07;;
10088;SDS011;51898;49.864;8.550;2023-01-10T18:12:27;8.20;;;3.10;;
10088;SDS011;51898;49.864;8.550;2023-01-10T18:15:29;12.40;;;3.73;;
10088;SDS011;51898;49.864;8.550;2023-01-10T18:18:30;6.27;;;2.80;;
10088;SDS011;51898;49.864;8.550;2023-01-10T18:21:32;5.03;;;2.60;;
10088;SDS011;51898;49.864;8.550;2023-01-10T18:24:34;7.37;;;2.80;;
10088;SDS011;51898;49.864;8.550;2023-01-10T18:27:35;6.10;;;2.50;;
10088;SDS011;51898;49.864;8.550;2023-01-10T18:30:37;8.80;;;2.73;;
10088;SDS011;51898;49.864;8.550;2023-01-10T18:33:40;6.37;;;2.40;;
10088;SDS011;51898;49.864;8.550;2023-01-10T18:36:42;4.10;;;2.20;;
10088;SDS011;51898;49.864;8.550;2023-01-10T18:39:44;6.90;;;2.40;;
10088;SDS011;51898;49.864;8.550;2023-01-10T18:42:48;8.97;;;3.80;;
10088;SDS011;51898;49.864;8.550;2023-01-10T18:46:06;6.70;;;2.63;;
10088;SDS011;51898;49.864;8.550;2023-01-10T18:49:11;7.37;;;2.20;;
10088;SDS011;51898;49.864;8.550;2023-01-10T18:52:12;7.93;;;2.77;;
10088;SDS011;51898;49.864;8.550;2023-01-10T18:55:16;8.03;;;2.40;;
10088;SDS011;51898;49.864;8.550;2023-01-10T18:58:18;5.60;;;2.13;;
10088;SDS011;51898;49.864;8.550;2023-01-10T19:01:22;9.47;;;3.83;;
10088;SDS011;51898;49.864;8.550;2023-01-10T19:04:23;10.43;;;2.53;;
10088;SDS011;51898;49.864;8.550;2023-01-10T19:07:25;4.50;;;2.13;;
10088;SDS011;51898;49.864;8.550;2023-01-10T19:10:27;8.03;;;2.70;;
10088;SDS011;51898;49.864;8.550;2023-01-10T19:13:34;9.77;;;2.27;;
10088;SDS011;51898;49.864;8.550;2023-01-10T19:16:36;6.20;;;2.60;;
10088;SDS011;51898;49.864;8.550;2023-01-10T19:19:38;8.20;;;2.40;;
10088;SDS011;51898;49.864;8.550;2023-01-10T19:22:40;8.90;;;3.07;;
10088;SDS011;51898;49.864;8.550;2023-01-10T19:25:41;8.40;;;3.20;;
10088;SDS011;51898;49.864;8.550;2023-01-10T19:28:43;8.23;;;2.70;;
10088;SDS011;51898;49.864;8.550;2023-01-10T19:31:45;6.70;;;2.60;;
10088;SDS011;51898;49.864;8.550;2023-01-10T19:34:50;9.00;;;2.90;;
10088;SDS011;51898;49.864;8.550;2023-01-10T19:37:51;7.10;;;2.40;;
10088;SDS011;51898;49.864;8.550;2023-01-10T19:40:53;7.63;;;3.03;;
10088;SDS011;51898;49.864;8.550;2023-01-10T19:43:57;10.93;;;3.10;;
10088;SDS011;51898;49.864;8.550;2023-01-10T19:47:00;8.43;;;2.50;;
10088;SDS011;51898;49.864;8.550;2023-01-10T19:50:02;8.30;;;3.27;;
10088;SDS011;51898;49.864;8.550;2023-01-10T19:53:04;13.47;;;2.93;;
10088;SDS011;51898;49.864;8.550;2023-01-10T19:56:06;11.47;;;2.40;;
10088;SDS011;51898;49.864;8.550;2023-01-10T19:59:10;7.70;;;2.93;;
10088;SDS011;51898;49.864;8.550;2023-01-10T20:02:15;6.00;;;2.60;;
10088;SDS011;51898;49.864;8.550;2023-01-10T20:05:17;8.53;;;2.50;;
10088;SDS011;51898;49.864;8.550;2023-01-10T20:08:20;6.20;;;2.30;;
10088;SDS011;51898;49.864;8.550;2023-01-10T20:11:23;10.00;;;3.77;;
10088;SDS011;51898;49.864;8.550;2023-01-10T20:14:26;11.20;;;3.70;;
10088;SDS011;51898;49.864;8.550;2023-01-10T20:17:27;11.47;;;2.97;;
10088;SDS011;51898;49.864;8.550;2023-01-10T20:20:33;8.63;;;2.90;;